Time;durP1;ratioP1;P1;durP2;ratioP2;P2;SDS_P1;SDS_P2;PMS_P1;PMS_P2;Temp;Humidity;BMP_temperature;BMP_pressure;BME280_temperature;BME280_humidity;BME280_pressure;Samples;Min_cycle;Max_cycle;Signal;HPM_P1;HPM_P2
2023/04/12 00:02:26;;;;;;;9.98;2.17;;;6.50;99.90;;;;;;5028743;28;20546;-61
2023/04/12 00:04:54;;;;;;;8.20;2.08;;;6.40;99.90;;;;;;5029241;28;20566;-61
2023/04/12 00:07:23;;;;;;;7.18;2.65;;;6.50;99.90;;;;;;5029008;28;20056;-53
2023/04/12 00:09:49;;;;;;;7.55;2.05;;;6.50;99.90;;;;;;5028083;28;20076;-57
2023/04/12 00:12:18;;;;;;;6.55;2.38;;;6.70;99.90;;;;;;5029407;28;20075;-50
2023/04/12 00:14:44;;;;;;;5.88;2.00;;;6.60;99.90;;;;;;5029340;28;20452;-59
2023/04/12 00:17:10;;;;;;;11.65;2.50;;;6.60;99.90;;;;;;5027662;28;20366;-56
2023/04/12 00:19:40;;;;;;;6.68;1.83;;;6.60;99.90;;;;;;5028724;28;20227;-61
2023/04/12 00:22:10;;;;;;;14.75;2.92;;;6.60;99.90;;;;;;5029226;28;20041;-54
2023/04/12 00:24:39;;;;;;;8.52;2.42;;;6.60;99.90;;;;;;5027633;28;20045;-63
2023/04/12 00:27:05;;;;;;;9.55;2.30;;;6.50;99.90;;;;;;5029004;28;20041;-59
2023/04/12 00:29:32;;;;;;;10.68;2.03;;;6.60;99.90;;;;;;5027552;28;20416;-60
2023/04/12 00:32:00;;;;;;;6.65;2.35;;;6.70;99.90;;;;;;5028306;28;20148;-56
2023/04/12 00:34:27;;;;;;;7.05;1.92;;;6.70;99.90;;;;;;5028943;28;20103;-61
2023/04/12 00:36:53;;;;;;;5.50;2.05;;;6.80;99.90;;;;;;5028309;28;20073;-57
2023/04/12 00:39:18;;;;;;;7.75;2.00;;;6.70;99.90;;;;;;5028475;28;20077;-58
2023/04/12 00:41:44;;;;;;;8.10;2.25;;;6.70;99.90;;;;;;5028683;28;20622;-47
2023/04/12 00:44:10;;;;;;;6.30;2.08;;;6.70;99.90;;;;;;5028541;28;20215;-61
2023/04/12 00:46:36;;;;;;;5.80;2.20;;;6.70;99.90;;;;;;5028642;28;20045;-63
2023/04/12 00:49:03;;;;;;;11.27;2.53;;;6.70;99.90;;;;;;5027774;28;20126;-59
2023/04/12 00:51:32;;;;;;;10.60;2.70;;;6.70;99.90;;;;;;5026887;28;20068;-49
2023/04/12 00:54:00;;;;;;;7.93;2.10;;;6.70;99.90;;;;;;5028443;28;20055;-62
2023/04/12 00:56:27;;;;;;;8.80;2.50;;;6.80;99.90;;;;;;5027222;28;20133;-52
2023/04/12 00:58:56;;;;;;;10.35;2.67;;;6.70;99.90;;;;;;5019894;28;20046;-60
2023/04/12 01:01:22;;;;;;;10.77;2.20;;;6.80;99.90;;;;;;5008500;28;20184;-47
2023/04/12 01:03:50;;;;;;;7.43;2.20;;;6.80;99.90;;;;;;5008367;28;20053;-54
2023/04/12 01:06:38;;;;;;;9.93;2.50;;;6.70;99.90;;;;;;5008150;28;20394;-62
2023/04/12 01:09:42;;;;;;;10.07;2.38;;;6.80;99.90;;;;;;5007960;28;20054;-60
2023/04/12 01:12:34;;;;;;;9.48;2.50;;;6.80;99.90;;;;;;5006369;28;20082;-63
2023/04/12 01:15:11;;;;;;;9.45;2.63;;;6.80;99.90;;;;;;5008156;28;20567;-61
2023/04/12 01:18:15;;;;;;;7.18;2.60;;;6.80;99.90;;;;;;5007984;28;20053;-63
2023/04/12 01:20:56;;;;;;;11.15;3.00;;;6.80;99.90;;;;;;5005340;28;20057;-53
2023/04/12 01:23:46;;;;;;;8.20;2.88;;;6.90;99.90;;;;;;5008234;28;20107;-51
2023/04/12 01:26:33;;;;;;;9.63;2.60;;;6.90;99.90;;;;;;5006918;28;20054;-61
2023/04/12 01:29:01;;;;;;;5.28;2.20;;;6.90;99.90;;;;;;5006988;28;20050;-57
2023/04/12 01:31:29;;;;;;;10.13;3.03;;;7.20;99.90;;;;;;5006900;28;20045;-62
2023/04/12 01:33:56;;;;;;;14.18;3.10;;;6.90;99.90;;;;;;5007291;28;20042;-57
2023/04/12 01:36:26;;;;;;;11.85;2.60;;;6.90;99.90;;;;;;5007046;28;20104;-52
2023/04/12 01:38:53;;;;;;;6.43;2.35;;;7.00;99.90;;;;;;5007715;28;20049;-52
2023/04/12 01:41:19;;;;;;;7.53;2.65;;;7.00;99.90;;;;;;5006130;28;20057;-60
2023/04/12 01:43:46;;;;;;;8.73;2.80;;;7.00;99.90;;;;;;5007506;28;20046;-63
2023/04/12 01:46:15;;;;;;;8.38;2.60;;;7.20;99.90;;;;;;5007432;28;20424;-60
2023/04/12 01:48:48;;;;;;;8.40;2.88;;;7.10;99.90;;;;;;5006199;28;20389;-62
2023/04/12 01:51:29;;;;;;;9.18;3.03;;;7.10;99.90;;;;;;5007405;28;20049;-63
2023/04/12 01:54:01;;;;;;;9.60;2.25;;;7.20;99.90;;;;;;5006986;28;20045;-56
2023/04/12 01:56:30;;;;;;;13.05;3.28;;;7.40;99.90;;;;;;5006496;28;20857;-59
2023/04/12 01:58:57;;;;;;;13.00;3.30;;;7.20;99.90;;;;;;5015134;28;20037;-49
2023/04/12 02:01:24;;;;;;;7.47;2.40;;;7.20;99.90;;;;;;5027289;28;20052;-63
2023/04/12 02:03:51;;;;;;;11.98;3.17;;;7.20;99.90;;;;;;5027348;28;20037;-59
2023/04/12 02:06:21;;;;;;;8.35;3.10;;;7.40;99.90;;;;;;5026368;28;20040;-59
2023/04/12 02:08:47;;;;;;;9.27;2.78;;;7.30;99.90;;;;;;5026645;28;20057;-59
2023/04/12 02:11:13;;;;;;;7.72;2.55;;;7.40;99.90;;;;;;5026354;28;20041;-62
2023/04/12 02:13:39;;;;;;;10.05;3.08;;;7.40;99.90;;;;;;5026566;28;20045;-56
2023/04/12 02:16:06;;;;;;;8.23;3.05;;;7.40;99.90;;;;;;5026548;28;20468;-59
2023/04/12 02:18:34;;;;;;;10.82;2.92;;;7.40;99.90;;;;;;5026535;28;20055;-60
2023/04/12 02:21:00;;;;;;;10.23;3.00;;;7.40;99.90;;;;;;5026071;28;20048;-59
2023/04/12 02:23:26;;;;;;;8.68;2.78;;;7.70;99.90;;;;;;5026537;28;20472;-63
2023/04/12 02:25:51;;;;;;;9.85;2.72;;;7.50;99.90;;;;;;5026282;28;20049;-58
2023/04/12 02:28:17;;;;;;;10.18;3.05;;;7.60;99.90;;;;;;5026809;28;20221;-63
2023/04/12 02:30:43;;;;;;;9.70;3.05;;;7.60;99.90;;;;;;5024419;28;20761;-61
2023/04/12 02:33:08;;;;;;;8.75;2.78;;;7.60;99.90;;;;;;5026445;28;20053;-58
2023/04/12 02:35:37;;;;;;;8.55;2.60;;;7.70;99.90;;;;;;5026479;28;20073;-62
2023/04/12 02:38:06;;;;;;;6.93;3.00;;;7.80;99.90;;;;;;5025664;28;20499;-57
2023/04/12 02:40:34;;;;;;;11.07;3.13;;;7.80;99.90;;;;;;5026006;28;20076;-60
2023/04/12 02:42:59;;;;;;;9.65;2.92;;;7.90;99.90;;;;;;5026231;28;20518;-62
2023/04/12 02:45:26;;;;;;;9.95;3.20;;;7.90;99.90;;;;;;5025711;28;20041;-61
2023/04/12 02:47:51;;;;;;;9.48;2.92;;;8.00;99.90;;;;;;5025881;28;20136;-61
2023/04/12 02:50:17;;;;;;;10.77;3.13;;;8.00;99.90;;;;;;5025308;28;20125;-63
2023/04/12 02:52:43;;;;;;;11.57;3.60;;;8.00;99.90;;;;;;5040330;28;20278;-48
2023/04/12 02:55:09;;;;;;;10.02;2.90;;;8.00;99.90;;;;;;5023907;28;20129;-59
2023/04/12 02:57:34;;;;;;;13.75;3.20;;;8.00;99.90;;;;;;5019947;28;20061;-63
2023/04/12 03:00:00;;;;;;;8.50;3.22;;;7.90;99.90;;;;;;5014165;28;20038;-60
2023/04/12 03:02:26;;;;;;;10.52;2.65;;;8.10;99.90;;;;;;5006084;28;20500;-53
2023/04/12 03:04:53;;;;;;;7.88;3.05;;;7.90;99.90;;;;;;5005549;28;20045;-49
2023/04/12 03:07:20;;;;;;;12.25;3.78;;;7.90;99.90;;;;;;5005441;28;20420;-58
2023/04/12 03:09:48;;;;;;;12.20;3.45;;;7.90;99.90;;;;;;5004379;28;20057;-62
2023/04/12 03:12:15;;;;;;;14.18;3.53;;;7.90;99.90;;;;;;5005664;28;20046;-63
2023/04/12 03:14:41;;;;;;;8.63;3.13;;;7.90;99.90;;;;;;5005353;28;20042;-57
2023/04/12 03:17:06;;;;;;;7.68;3.20;;;7.80;99.90;;;;;;5005113;28;20121;-63
2023/04/12 03:19:34;;;;;;;10.55;3.50;;;7.80;99.90;;;;;;5005488;28;20057;-56
2023/04/12 03:22:00;;;;;;;8.98;3.42;;;7.80;99.90;;;;;;5004068;28;20049;-57
2023/04/12 03:24:26;;;;;;;12.40;3.95;;;7.80;99.90;;;;;;5003632;28;20422;-61
2023/04/12 03:26:52;;;;;;;9.25;3.40;;;7.90;99.90;;;;;;5004986;28;20540;-61
2023/04/12 03:29:18;;;;;;;8.45;3.40;;;7.80;99.90;;;;;;5005128;28;20076;-59
2023/04/12 03:31:44;;;;;;;10.45;3.53;;;7.90;99.90;;;;;;5005349;28;20073;-51
2023/04/12 03:34:09;;;;;;;15.20;3.92;;;7.90;99.90;;;;;;5003737;28;20219;-60
2023/04/12 03:36:35;;;;;;;10.05;3.35;;;8.00;99.90;;;;;;5005642;28;20037;-63
2023/04/12 03:39:00;;;;;;;6.97;3.55;;;8.00;99.90;;;;;;5004521;28;20489;-56
2023/04/12 03:41:27;;;;;;;11.82;3.58;;;8.00;99.90;;;;;;5005613;28;20221;-60
2023/04/12 03:43:53;;;;;;;10.40;3.30;;;8.00;99.90;;;;;;5006114;28;20516;-55
2023/04/12 03:46:19;;;;;;;7.97;3.35;;;8.00;99.90;;;;;;5005415;28;20154;-62
2023/04/12 03:48:44;;;;;;;10.13;3.65;;;8.00;99.90;;;;;;5005552;28;20181;-60
2023/04/12 03:51:12;;;;;;;9.63;3.10;;;8.10;99.90;;;;;;5004306;28;20405;-50
2023/04/12 03:53:38;;;;;;;7.75;3.08;;;8.10;99.90;;;;;;5005587;28;20132;-57
2023/04/12 03:56:04;;;;;;;7.55;3.13;;;8.20;99.90;;;;;;5005263;28;20089;-59
2023/04/12 03:58:30;;;;;;;9.77;3.15;;;8.20;99.90;;;;;;5010201;28;20042;-59
2023/04/12 04:00:56;;;;;;;9.25;3.30;;;8.10;99.90;;;;;;5025231;28;20112;-52
2023/04/12 04:03:25;;;;;;;8.23;3.22;;;8.10;99.90;;;;;;5027159;28;20618;-62
2023/04/12 04:05:51;;;;;;;11.60;3.67;;;8.10;99.90;;;;;;5028937;28;20049;-52
2023/04/12 04:08:17;;;;;;;8.80;3.42;;;8.00;99.90;;;;;;5028998;28;20065;-59
2023/04/12 04:10:44;;;;;;;9.77;4.00;;;7.90;99.90;;;;;;5027345;28;20177;-49
2023/04/12 04:13:09;;;;;;;9.88;3.80;;;7.90;99.90;;;;;;5028510;28;20046;-56
2023/04/12 04:15:35;;;;;;;11.35;3.45;;;7.90;99.90;;;;;;5027126;28;20061;-60
2023/04/12 04:18:01;;;;;;;11.43;3.83;;;7.90;99.90;;;;;;5029120;28;20060;-59
2023/04/12 04:20:27;;;;;;;13.57;4.28;;;8.00;99.90;;;;;;5029012;28;20094;-62
2023/04/12 04:22:52;;;;;;;11.35;3.38;;;8.00;99.90;;;;;;5027104;28;20136;-58
2023/04/12 04:25:18;;;;;;;7.72;3.38;;;8.00;99.90;;;;;;5027615;28;20155;-63
2023/04/12 04:27:44;;;;;;;12.95;3.42;;;8.00;99.90;;;;;;5028432;28;20565;-65
2023/04/12 04:30:15;;;;;;;7.78;3.20;;;8.00;99.90;;;;;;5027849;28;20038;-62
2023/04/12 04:32:42;;;;;;;9.10;3.70;;;8.30;99.90;;;;;;5028644;28;20052;-55
2023/04/12 04:35:07;;;;;;;10.50;3.58;;;8.10;99.90;;;;;;5028928;28;20084;-58
2023/04/12 04:37:36;;;;;;;10.20;4.10;;;8.00;99.90;;;;;;5027970;28;20076;-57
2023/04/12 04:40:08;;;;;;;8.98;3.70;;;7.90;99.90;;;;;;5027943;28;20053;-62
2023/04/12 04:42:33;;;;;;;11.05;4.03;;;7.90;99.90;;;;;;5028632;28;20042;-61
2023/04/12 04:45:01;;;;;;;8.20;3.85;;;7.90;99.90;;;;;;5028301;28;20140;-59
2023/04/12 04:47:29;;;;;;;9.13;3.45;;;7.90;99.90;;;;;;5028502;28;20053;-61
2023/04/12 04:49:58;;;;;;;9.13;3.83;;;7.90;99.90;;;;;;5028537;28;20199;-64
2023/04/12 04:52:24;;;;;;;8.77;4.53;;;8.60;99.90;;;;;;5028266;28;20041;-58
2023/04/12 04:54:50;;;;;;;9.18;3.40;;;7.70;99.90;;;;;;5027567;28;20052;-57
2023/04/12 04:57:16;;;;;;;10.13;3.60;;;7.80;99.90;;;;;;5023470;28;20050;-48
2023/04/12 04:59:42;;;;;;;11.40;4.43;;;8.00;99.90;;;;;;5016439;28;20053;-57
2023/04/12 05:02:07;;;;;;;14.23;3.97;;;7.70;99.90;;;;;;5008151;28;20037;-62
2023/04/12 05:04:33;;;;;;;9.95;3.55;;;7.70;99.90;;;;;;5008624;28;20101;-54
2023/04/12 05:06:59;;;;;;;8.32;3.38;;;7.70;99.90;;;;;;5008079;28;20188;-65
2023/04/12 05:09:24;;;;;;;8.10;3.35;;;7.70;99.90;;;;;;5006901;28;20530;-62
2023/04/12 05:11:50;;;;;;;13.07;3.80;;;7.80;99.90;;;;;;5008163;28;20038;-64
2023/04/12 05:14:16;;;;;;;8.80;3.63;;;7.70;99.90;;;;;;5007206;28;20042;-63
2023/04/12 05:16:41;;;;;;;9.35;3.30;;;7.60;99.90;;;;;;5007621;28;20053;-61
2023/04/12 05:19:07;;;;;;;8.55;3.10;;;7.60;99.90;;;;;;5008063;28;20033;-62
2023/04/12 05:21:33;;;;;;;8.20;3.40;;;7.60;99.90;;;;;;5007049;28;20064;-62
2023/04/12 05:23:58;;;;;;;10.57;3.20;;;7.70;99.90;;;;;;5007219;28;20042;-64
2023/04/12 05:26:24;;;;;;;9.23;3.55;;;7.60;99.90;;;;;;5007420;28;20044;-62
2023/04/12 05:28:50;;;;;;;10.05;2.97;;;7.60;99.90;;;;;;5007854;28;20532;-66
2023/04/12 05:31:16;;;;;;;11.95;3.58;;;7.80;99.90;;;;;;5006205;28;20038;-49
2023/04/12 05:33:43;;;;;;;11.25;2.83;;;7.60;99.90;;;;;;5007307;28;20060;-61
2023/04/12 05:36:09;;;;;;;8.48;3.13;;;7.60;99.90;;;;;;5006616;28;20365;-54
2023/04/12 05:38:35;;;;;;;6.30;2.83;;;7.60;99.90;;;;;;5006530;28;20099;-62
2023/04/12 05:41:03;;;;;;;9.63;2.72;;;7.70;99.90;;;;;;5007555;28;20045;-57
2023/04/12 05:43:29;;;;;;;7.10;2.88;;;7.60;99.90;;;;;;5006811;28;20049;-61
2023/04/12 05:45:55;;;;;;;6.97;3.10;;;7.60;99.90;;;;;;5007464;28;20091;-63
2023/04/12 05:48:20;;;;;;;6.65;2.72;;;7.60;99.90;;;;;;5006180;28;20046;-49
2023/04/12 05:50:53;;;;;;;6.20;2.63;;;7.70;99.90;;;;;;5006709;28;20037;-60
2023/04/12 05:53:20;;;;;;;7.25;2.58;;;7.60;99.90;;;;;;5024856;28;20099;-57
2023/04/12 05:55:46;;;;;;;9.32;2.85;;;7.70;99.90;;;;;;5024845;28;20091;-64
2023/04/12 05:58:12;;;;;;;6.32;3.00;;;7.70;99.90;;;;;;5020131;28;20381;-60
2023/04/12 06:00:41;;;;;;;6.65;2.55;;;7.60;99.90;;;;;;5010398;28;20121;-59
2023/04/12 06:03:09;;;;;;;6.25;2.65;;;7.70;99.90;;;;;;5007233;28;20069;-55
2023/04/12 06:05:34;;;;;;;8.27;2.65;;;7.90;99.90;;;;;;5005839;28;20046;-59
2023/04/12 06:08:00;;;;;;;6.22;2.70;;;7.70;99.90;;;;;;5006469;28;20665;-58
2023/04/12 06:10:26;;;;;;;8.63;2.85;;;7.70;99.90;;;;;;5006028;28;20058;-53
2023/04/12 06:12:52;;;;;;;8.88;3.20;;;7.70;99.90;;;;;;5006854;28;20489;-62
2023/04/12 06:15:19;;;;;;;4.57;2.28;;;7.60;99.90;;;;;;5007010;28;20129;-64
2023/04/12 06:17:45;;;;;;;6.60;2.90;;;7.70;99.90;;;;;;5006530;28;20042;-62
2023/04/12 06:20:11;;;;;;;5.13;2.55;;;7.60;99.90;;;;;;5006824;28;20052;-59
2023/04/12 06:22:37;;;;;;;7.18;2.78;;;7.60;99.90;;;;;;5005865;28;20049;-62
2023/04/12 06:25:03;;;;;;;6.38;2.72;;;7.80;99.90;;;;;;5005965;28;20548;-51
2023/04/12 06:27:29;;;;;;;6.25;2.95;;;7.60;99.90;;;;;;5006647;28;20061;-58
2023/04/12 06:29:55;;;;;;;9.82;2.63;;;7.70;99.90;;;;;;5006263;28;20050;-61
2023/04/12 06:32:20;;;;;;;7.70;2.58;;;7.70;99.90;;;;;;5007055;28;20507;-56
2023/04/12 06:34:46;;;;;;;7.40;2.60;;;7.90;99.90;;;;;;5006806;28;20414;-57
2023/04/12 06:37:12;;;;;;;8.48;2.78;;;7.60;99.90;;;;;;5006692;28;20042;-50
2023/04/12 06:39:37;;;;;;;5.55;2.47;;;7.60;99.90;;;;;;5006281;28;20065;-58
2023/04/12 06:42:03;;;;;;;5.10;2.83;;;7.60;99.90;;;;;;5006410;28;20053;-65
2023/04/12 06:44:29;;;;;;;9.48;3.10;;;7.60;99.90;;;;;;5006445;28;20037;-58
2023/04/12 06:46:54;;;;;;;6.22;2.50;;;7.60;99.90;;;;;;5006395;28;20042;-62
2023/04/12 06:49:20;;;;;;;8.23;2.75;;;7.50;99.90;;;;;;5006442;28;20172;-61
2023/04/12 06:51:46;;;;;;;9.13;2.90;;;7.50;99.90;;;;;;5005167;28;20430;-59
2023/04/12 06:54:12;;;;;;;9.07;2.83;;;7.50;99.90;;;;;;5005116;28;20042;-61
2023/04/12 06:56:38;;;;;;;6.30;2.50;;;7.60;99.90;;;;;;5007270;28;20251;-60
2023/04/12 06:59:04;;;;;;;7.55;3.05;;;7.60;99.90;;;;;;5016832;28;20125;-62
2023/04/12 07:01:30;;;;;;;6.55;2.75;;;7.60;99.90;;;;;;5006167;28;20501;-59
2023/04/12 07:03:55;;;;;;;11.32;3.13;;;7.50;99.90;;;;;;5006289;28;20100;-59
2023/04/12 07:06:21;;;;;;;8.73;3.22;;;7.60;99.90;;;;;;5006392;28;20049;-55
2023/04/12 07:08:47;;;;;;;10.93;3.50;;;7.50;99.90;;;;;;5005340;28;20164;-58
2023/04/12 07:11:13;;;;;;;8.45;3.00;;;7.50;99.90;;;;;;5006099;28;20046;-56
2023/04/12 07:13:38;;;;;;;8.80;2.50;;;7.50;99.90;;;;;;5006568;28;20093;-50
2023/04/12 07:16:05;;;;;;;7.47;3.17;;;7.60;99.90;;;;;;5004979;28;20049;-59
2023/04/12 07:18:30;;;;;;;5.82;2.50;;;7.60;99.90;;;;;;5005707;28;20046;-62
2023/04/12 07:20:57;;;;;;;7.25;3.20;;;7.60;99.90;;;;;;5006354;28;20057;-59
2023/04/12 07:23:22;;;;;;;7.43;3.17;;;7.50;99.90;;;;;;5004231;28;20046;-62
2023/04/12 07:25:48;;;;;;;7.32;2.83;;;7.50;99.90;;;;;;5005847;28;20092;-49
2023/04/12 07:28:14;;;;;;;12.90;3.70;;;7.50;99.90;;;;;;5006038;28;20042;-62
2023/04/12 07:30:40;;;;;;;8.07;2.60;;;7.50;99.90;;;;;;5005981;28;20041;-55
2023/04/12 07:33:06;;;;;;;6.30;2.88;;;7.60;99.90;;;;;;5005847;28;20481;-58
2023/04/12 07:35:32;;;;;;;5.95;2.95;;;7.60;99.90;;;;;;5005370;28;20045;-58
2023/04/12 07:37:59;;;;;;;9.02;3.03;;;7.50;99.90;;;;;;5006638;28;20455;-55
2023/04/12 07:40:25;;;;;;;6.47;3.08;;;7.60;99.90;;;;;;5008781;28;20044;-58
2023/04/12 07:42:51;;;;;;;6.45;3.13;;;7.60;99.90;;;;;;5007477;28;20054;-52
2023/04/12 07:45:18;;;;;;;8.75;3.30;;;7.60;99.90;;;;;;5008110;28;20069;-61
2023/04/12 07:47:44;;;;;;;7.32;3.22;;;7.70;99.90;;;;;;5008686;28;20100;-61
2023/04/12 07:50:10;;;;;;;8.45;3.20;;;7.70;99.90;;;;;;5009359;28;20497;-51
2023/04/12 07:52:36;;;;;;;7.93;3.20;;;7.60;99.90;;;;;;5009104;28;20037;-53
2023/04/12 07:55:01;;;;;;;8.38;3.55;;;7.60;99.90;;;;;;5008387;28;20469;-58
2023/04/12 07:57:27;;;;;;;9.05;3.63;;;7.60;99.90;;;;;;5012295;28;20512;-61
2023/04/12 07:59:52;;;;;;;8.98;3.58;;;7.50;99.90;;;;;;5017641;28;20049;-55
2023/04/12 08:02:23;;;;;;;6.88;3.67;;;7.60;99.90;;;;;;5008217;28;20049;-56
2023/04/12 08:04:52;;;;;;;8.50;3.80;;;7.60;99.90;;;;;;5009183;28;20096;-58
2023/04/12 08:07:18;;;;;;;11.75;3.95;;;7.60;99.90;;;;;;5008760;28;20057;-62
2023/04/12 08:09:45;;;;;;;8.52;4.07;;;7.70;99.90;;;;;;5009082;28;20113;-58
2023/04/12 08:12:11;;;;;;;7.93;3.80;;;7.70;99.90;;;;;;5009763;28;20044;-58
2023/04/12 08:14:37;;;;;;;6.85;3.67;;;7.80;99.90;;;;;;5007631;28;20065;-61
2023/04/12 08:17:02;;;;;;;8.02;3.88;;;7.60;99.90;;;;;;5009105;28;20042;-58
2023/04/12 08:19:28;;;;;;;6.93;4.15;;;7.70;99.90;;;;;;5008787;28;20049;-55
2023/04/12 08:21:54;;;;;;;7.43;3.80;;;7.70;99.90;;;;;;5009375;28;20037;-58
2023/04/12 08:24:20;;;;;;;7.15;4.10;;;7.70;99.90;;;;;;5007956;28;20513;-50
2023/04/12 08:26:46;;;;;;;6.90;4.35;;;7.70;99.90;;;;;;5008790;28;20096;-61
2023/04/12 08:29:11;;;;;;;8.02;4.88;;;7.70;99.90;;;;;;5009881;28;20543;-59
2023/04/12 08:31:39;;;;;;;5.80;3.80;;;7.90;99.90;;;;;;5026118;28;20047;-55
2023/04/12 08:34:05;;;;;;;8.32;4.80;;;7.90;99.90;;;;;;5026294;28;20057;-58
2023/04/12 08:36:31;;;;;;;7.55;4.20;;;7.70;99.90;;;;;;5007711;28;20049;-59
2023/04/12 08:39:00;;;;;;;6.07;4.00;;;7.80;99.90;;;;;;5007192;28;20042;-61
2023/04/12 08:41:26;;;;;;;7.30;4.80;;;7.80;99.90;;;;;;5008596;28;20072;-60
2023/04/12 08:43:54;;;;;;;7.10;4.50;;;7.80;99.90;;;;;;5007044;28;20117;-50
2023/04/12 08:46:20;;;;;;;6.60;4.90;;;8.40;99.90;;;;;;5007973;28;20124;-56
2023/04/12 08:48:47;;;;;;;6.20;4.65;;;8.10;99.90;;;;;;5006365;28;20568;-54
2023/04/12 08:51:17;;;;;;;7.43;4.45;;;7.90;99.90;;;;;;5007519;28;20046;-58
2023/04/12 08:53:43;;;;;;;6.25;4.28;;;7.90;99.90;;;;;;5007372;28;20100;-57
2023/04/12 08:56:10;;;;;;;8.02;4.22;;;8.00;99.90;;;;;;5008470;28;20041;-63
2023/04/12 08:58:41;;;;;;;7.13;4.07;;;7.90;99.90;;;;;;5019123;28;20068;-60
2023/04/12 09:01:14;;;;;;;8.07;4.20;;;8.00;99.90;;;;;;5007453;28;20049;-48
2023/04/12 09:03:41;;;;;;;7.35;4.40;;;8.00;99.90;;;;;;5007750;28;20030;-54
2023/04/12 09:06:07;;;;;;;5.43;4.07;;;8.00;99.90;;;;;;5007638;28;20128;-57
2023/04/12 09:08:34;;;;;;;6.60;4.07;;;8.00;99.90;;;;;;5004580;28;20437;-49
2023/04/12 09:10:59;;;;;;;6.65;3.90;;;8.10;99.90;;;;;;5006537;28;20046;-60
2023/04/12 09:13:33;;;;;;;8.95;4.63;;;8.20;99.90;;;;;;5007730;28;20046;-56
2023/04/12 09:15:59;;;;;;;5.95;4.20;;;8.20;99.90;;;;;;5007603;28;20412;-59
2023/04/12 09:18:26;;;;;;;8.70;4.35;;;8.50;99.90;;;;;;5007498;28;20128;-57
2023/04/12 09:21:06;;;;;;;8.18;4.47;;;8.20;99.90;;;;;;5007932;28;20050;-53
2023/04/12 09:23:31;;;;;;;7.90;4.55;;;8.30;99.90;;;;;;5006421;28;20121;-55
2023/04/12 09:25:57;;;;;;;7.88;4.05;;;8.30;99.90;;;;;;5006049;28;20128;-59
2023/04/12 09:28:25;;;;;;;6.68;3.92;;;8.30;99.90;;;;;;5005445;28;20041;-58
2023/04/12 09:30:52;;;;;;;5.43;3.63;;;8.30;99.90;;;;;;5006578;28;20081;-60
2023/04/12 09:33:19;;;;;;;6.45;4.57;;;8.30;99.90;;;;;;5007211;28;20124;-51
2023/04/12 09:35:46;;;;;;;7.38;4.18;;;8.20;99.90;;;;;;5007232;28;20069;-57
2023/04/12 09:38:12;;;;;;;5.05;3.70;;;8.30;99.90;;;;;;5005785;28;20116;-56
2023/04/12 09:40:38;;;;;;;6.43;3.67;;;8.20;99.90;;;;;;5006847;28;20038;-57
2023/04/12 09:43:04;;;;;;;5.22;3.58;;;8.30;99.90;;;;;;5006780;28;20459;-58
2023/04/12 09:45:36;;;;;;;6.07;3.80;;;8.20;99.90;;;;;;5006466;28;20070;-56
2023/04/12 09:48:02;;;;;;;5.10;3.75;;;8.20;99.90;;;;;;5006537;28;20056;-58
2023/04/12 09:50:31;;;;;;;5.93;3.58;;;8.20;99.90;;;;;;5006900;28;20038;-59
2023/04/12 09:52:58;;;;;;;5.45;3.30;;;8.30;99.90;;;;;;5005406;28;20404;-58
2023/04/12 09:55:25;;;;;;;6.68;3.80;;;8.20;99.90;;;;;;5007077;28;20081;-53
2023/04/12 09:57:52;;;;;;;5.40;2.90;;;8.30;99.90;;;;;;5012049;28;20076;-53
2023/04/12 10:00:21;;;;;;;5.07;3.60;;;8.20;99.90;;;;;;5012209;28;20057;-58
2023/04/12 10:02:50;;;;;;;4.45;3.67;;;8.20;99.90;;;;;;5006758;28;20397;-51
2023/04/12 10:05:18;;;;;;;7.43;3.85;;;8.20;99.90;;;;;;5007904;28;20043;-57
2023/04/12 10:07:44;;;;;;;4.20;3.60;;;8.30;99.90;;;;;;5005754;28;20062;-53
2023/04/12 10:10:12;;;;;;;5.85;3.67;;;8.30;99.90;;;;;;5006801;28;20053;-60
2023/04/12 10:12:39;;;;;;;5.00;3.55;;;8.40;99.90;;;;;;5006913;28;20045;-54
2023/04/12 10:15:11;;;;;;;5.45;3.70;;;8.40;99.90;;;;;;5006775;28;20042;-56
2023/04/12 10:17:47;;;;;;;6.25;3.83;;;8.50;99.90;;;;;;5006618;28;20042;-59
2023/04/12 10:20:14;;;;;;;5.43;3.88;;;8.50;99.90;;;;;;5006388;28;20057;-59
2023/04/12 10:22:42;;;;;;;6.40;4.40;;;8.60;99.90;;;;;;5005799;28;20041;-56
2023/04/12 10:25:16;;;;;;;6.22;3.88;;;8.60;99.90;;;;;;5006444;28;20536;-55
2023/04/12 10:27:43;;;;;;;5.07;3.97;;;8.70;99.90;;;;;;5006733;28;20520;-59
2023/04/12 10:30:26;;;;;;;5.72;4.88;;;8.80;99.90;;;;;;5004202;28;20042;-55
2023/04/12 10:33:03;;;;;;;5.40;4.18;;;8.90;99.90;;;;;;5006276;28;20050;-49
2023/04/12 10:35:48;;;;;;;6.10;4.78;;;9.00;99.90;;;;;;5006048;28;20119;-56
2023/04/12 10:38:14;;;;;;;6.57;5.25;;;9.10;99.90;;;;;;5005455;28;20082;-51
2023/04/12 10:41:06;;;;;;;7.00;5.07;;;9.20;99.90;;;;;;5006255;28;20084;-58
2023/04/12 10:43:32;;;;;;;7.13;5.53;;;9.30;99.90;;;;;;5000757;28;20448;-53
2023/04/12 10:46:03;;;;;;;5.65;5.05;;;9.30;99.90;;;;;;5006063;28;20046;-55
2023/04/12 10:48:37;;;;;;;6.50;4.93;;;9.50;99.90;;;;;;5006261;28;20092;-51
2023/04/12 10:51:16;;;;;;;5.90;4.70;;;9.60;99.90;;;;;;5006080;28;20382;-54
2023/04/12 10:53:43;;;;;;;7.28;5.95;;;9.80;99.90;;;;;;5004999;28;20054;-54
2023/04/12 10:56:30;;;;;;;8.27;6.30;;;9.90;99.90;;;;;;5006344;28;20053;-57
2023/04/12 10:59:04;;;;;;;6.78;6.07;;;10.20;99.90;;;;;;5014789;28;20159;-58
2023/04/12 11:01:30;;;;;;;5.03;4.35;;;10.50;99.90;;;;;;5026045;28;20052;-56
2023/04/12 11:04:13;;;;;;;6.53;5.47;;;10.80;99.90;;;;;;5025539;28;20626;-52
2023/04/12 11:06:56;;;;;;;5.65;4.78;;;10.60;99.90;;;;;;5025882;28;20045;-53
2023/04/12 11:09:36;;;;;;;6.60;4.88;;;10.60;99.90;;;;;;5024954;28;20049;-50
2023/04/12 11:12:04;;;;;;;6.32;4.78;;;10.60;99.90;;;;;;5025533;28;20049;-53
2023/04/12 11:14:34;;;;;;;6.38;4.20;;;10.60;99.90;;;;;;5025347;28;20049;-54
2023/04/12 11:17:05;;;;;;;7.32;4.53;;;10.60;99.90;;;;;;5024855;28;20124;-54
2023/04/12 11:19:42;;;;;;;6.80;5.22;;;10.50;99.90;;;;;;5025149;28;20084;-50
2023/04/12 11:22:12;;;;;;;7.03;5.00;;;10.40;99.90;;;;;;5025454;28;20128;-56
2023/04/12 11:24:39;;;;;;;5.90;4.50;;;10.50;99.90;;;;;;5024904;28;20124;-56
2023/04/12 11:27:07;;;;;;;5.88;4.63;;;10.60;99.90;;;;;;5025658;28;20049;-57
2023/04/12 11:29:33;;;;;;;8.93;4.30;;;10.80;99.90;;;;;;5024992;28;20088;-59
2023/04/12 11:32:06;;;;;;;4.95;3.38;;;10.90;99.90;;;;;;5025617;28;20092;-62
2023/04/12 11:34:33;;;;;;;5.95;3.85;;;11.10;99.90;;;;;;5025539;28;20064;-60
2023/04/12 11:36:59;;;;;;;6.35;4.25;;;11.20;99.90;;;;;;5023816;28;20046;-63
2023/04/12 11:39:27;;;;;;;6.65;3.35;;;11.30;99.90;;;;;;5012834;28;20124;-55
2023/04/12 11:41:53;;;;;;;6.72;3.47;;;11.30;99.90;;;;;;5023638;28;20075;-56
2023/04/12 11:44:20;;;;;;;7.78;3.60;;;11.30;99.90;;;;;;5018523;28;20042;-61
2023/04/12 11:46:47;;;;;;;7.53;3.75;;;11.50;99.90;;;;;;5005203;28;20049;-59
2023/04/12 11:49:20;;;;;;;8.95;3.70;;;11.60;99.90;;;;;;5005293;28;20142;-60
2023/04/12 11:51:46;;;;;;;5.70;3.45;;;11.60;99.90;;;;;;5004417;28;20095;-62
2023/04/12 11:54:12;;;;;;;8.32;3.38;;;11.60;99.90;;;;;;5004884;28;20046;-58
2023/04/12 11:56:39;;;;;;;7.50;3.63;;;11.60;99.90;;;;;;5005526;28;20131;-58
2023/04/12 11:59:05;;;;;;;8.05;3.38;;;11.50;99.90;;;;;;5016260;28;20049;-63
2023/04/12 12:01:33;;;;;;;8.75;3.25;;;11.50;99.90;;;;;;5005450;28;20041;-62
2023/04/12 12:03:59;;;;;;;12.13;3.50;;;11.50;99.90;;;;;;5005684;28;20080;-63
2023/04/12 12:06:26;;;;;;;6.18;3.10;;;11.60;99.90;;;;;;5005941;28;20038;-59
2023/04/12 12:08:54;;;;;;;9.23;3.38;;;11.70;99.90;;;;;;5004948;28;20208;-61
2023/04/12 12:11:20;;;;;;;9.93;3.20;;;11.60;99.90;;;;;;5005792;28;20085;-63
2023/04/12 12:13:51;;;;;;;7.45;2.63;;;11.60;99.90;;;;;;5005547;28;20054;-60
2023/04/12 12:16:22;;;;;;;7.55;2.80;;;11.70;99.90;;;;;;5005521;28;20046;-62
2023/04/12 12:18:48;;;;;;;7.25;3.47;;;11.90;99.90;;;;;;5005195;28;20046;-58
2023/04/12 12:21:14;;;;;;;9.07;3.00;;;12.10;99.90;;;;;;5005092;28;20057;-60
2023/04/12 12:23:44;;;;;;;6.13;2.90;;;12.30;99.90;;;;;;5005213;28;20445;-62
2023/04/12 12:26:22;;;;;;;8.93;2.75;;;12.40;99.90;;;;;;5008745;28;20638;-60
2023/04/12 12:28:55;;;;;;;7.90;2.90;;;12.40;99.90;;;;;;5008022;28;20057;-64
2023/04/12 12:31:26;;;;;;;9.90;3.22;;;12.50;99.90;;;;;;5008988;28;20053;-66
2023/04/12 12:33:57;;;;;;;9.60;2.90;;;12.50;99.90;;;;;;5009073;28;20459;-64
2023/04/12 12:36:34;;;;;;;7.25;2.40;;;12.50;99.90;;;;;;5009206;28;20049;-63
2023/04/12 12:39:11;;;;;;;8.77;2.97;;;12.70;99.90;;;;;;5007874;28;20085;-62
2023/04/12 12:41:37;;;;;;;5.88;2.80;;;12.90;99.90;;;;;;5007729;28;20100;-64
2023/04/12 12:44:04;;;;;;;7.10;2.75;;;13.10;99.90;;;;;;5006975;28;20038;-60
2023/04/12 12:46:29;;;;;;;7.20;2.63;;;13.00;99.90;;;;;;5006935;28;20497;-59
2023/04/12 12:48:55;;;;;;;6.65;2.65;;;12.80;99.90;;;;;;5008317;28;20042;-64
2023/04/12 12:51:21;;;;;;;8.50;2.80;;;12.60;99.90;;;;;;5007931;28;20034;-63
2023/04/12 12:53:47;;;;;;;8.88;3.05;;;12.50;99.90;;;;;;5005819;28;20054;-63
2023/04/12 12:56:14;;;;;;;9.57;3.08;;;12.40;99.90;;;;;;5007274;28;20441;-57
2023/04/12 12:58:40;;;;;;;7.45;2.50;;;12.30;99.90;;;;;;5018642;28;20037;-65